Enter the Airport ICAO Code

Search by Airport or City

Current Weather

LEMD | Adolfo Suárez Madrid–Barajas Airport

Madrid, Spain

Last Update 20 Minutes Ago

Clear Sky

Temperature of 22 ºC

Light to Moderate Winds from South

Temperature

22 ºC

Dew Point Temperature

07 ºC

Relative Humidity

38.1 %

Wind Direction

South (190º, Ranging from 120º to 210º)

Wind Velocity

9 km/h (05 kt)

Gusts

None

Visibility

No Significant Reductions

Sea Level Pressure

1016 hPa (Hectopascals)

Layers of Clouds

None

METAR LEMD 191230Z 19005KT 120V210 CAVOK 22/07 Q1016 NOSIG

Weather Forecast

LEMD | Adolfo Suárez Madrid–Barajas Airport

Madrid, Spain

Forecast valid for the next 29 Hours

From now on it is expected:

Sky with Few Clouds

Moderate Winds from South

In 3 to 5 hours it is expected the begining of:

Moderate Winds from SouthWest

In 18 hours it is expected the begining of 11 hours with intermittent periods of:

Moderate Winds from SouthWest with Gusts

Maximum Temperature

25 ºC in 2 Hours

Minimum Temperature

13 ºC in 16 Hours

TAF LEMD 191100Z 1912/2018 19010KT 9999 FEW045 TX25/1915Z TN13/2005Z BECMG 1916/1918 21010KT BECMG 2004/2006 23011KT PROB40 TEMPO 2007/2018 23015G27KT